Laurentides, Canada
Current Conditions -  °F | °C
As of 12:00 AM on Monday 22 Dec 2014 (Local Time) from CYMX Reporting Station
Overcast Overcast  
Wind Chill:   Ceiling: 1700
Heat Index: 16°   Visibility: 15mi
Dew Point: 12°   Wind: 5mph
Humidity: 86%   Direction: 50°NE
Pressure: 30.41"   Gusts: NA
Location:  45.85°N, 73.77°W
Report Text: CYMX 220500Z 05004KT 15SM OVC017 M09/M11 A3041 RMK SC8 SLP305
Loading
Personal Weather Stations






























Interactive Weather Map New forecast layout! Learn more

10-Day Weather Forecast

Advertisements
Track Severe Weather on mobile